Time;durP1;ratioP1;P1;durP2;ratioP2;P2;SDS_P1;SDS_P2;PMS_P1;PMS_P2;Temp;Humidity;BMP_temperature;BMP_pressure;BME280_temperature;BME280_humidity;BME280_pressure;Samples;Min_cycle;Max_cycle;Signal;HPM_P1;HPM_P2
2023/05/29 00:00:20;;;;;;;;;;;;;;;18.54;45.15;101023.91;4958933;28;7659;-76
2023/05/29 00:02:47;;;;;;;;;;;;;;;18.49;44.78;101020.31;4963499;28;6829;-76
2023/05/29 00:05:14;;;;;;;;;;;;;;;18.44;45.19;101027.97;4986274;28;6884;-74
2023/05/29 00:07:41;;;;;;;;;;;;;;;18.41;45.47;101024.47;4991648;28;7372;-77
2023/05/29 00:10:10;;;;;;;;;;;;;;;18.36;44.95;101026.94;4958556;28;7403;-76
2023/05/29 00:12:36;;;;;;;;;;;;;;;18.33;45.50;101029.44;4948957;28;7292;-75
2023/05/29 00:15:03;;;;;;;;;;;;;;;18.30;45.55;101029.34;4958356;28;6957;-76
2023/05/29 00:17:31;;;;;;;;;;;;;;;18.26;45.70;101024.94;4993620;28;7665;-76
2023/05/29 00:20:05;;;;;;;;;;;;;;;18.23;45.54;101027.44;4990245;28;7218;-76
2023/05/29 00:22:31;;;;;;;;;;;;;;;18.20;45.38;101032.53;4991103;28;7412;-76
2023/05/29 00:24:56;;;;;;;;;;;;;;;18.16;46.10;101032.47;4972660;28;6756;-75
2023/05/29 00:27:22;;;;;;;;;;;;;;;18.12;45.75;101029.75;4989913;28;6820;-76
2023/05/29 00:29:48;;;;;;;;;;;;;;;18.07;46.06;101032.22;4959847;28;7037;-75
2023/05/29 00:32:13;;;;;;;;;;;;;;;18.02;45.88;101037.25;4972864;28;7090;-76
2023/05/29 00:34:39;;;;;;;;;;;;;;;17.97;46.23;101032.78;4975462;28;7097;-76
2023/05/29 00:37:05;;;;;;;;;;;;;;;17.92;46.17;101037.84;4959460;28;7015;-76
2023/05/29 00:39:31;;;;;;;;;;;;;;;17.88;46.12;101042.06;4976153;28;6878;-76
2023/05/29 00:41:56;;;;;;;;;;;;;;;17.84;46.13;101040.19;4938296;28;7223;-75
2023/05/29 00:44:23;;;;;;;;;;;;;;;17.81;46.34;101047.91;4966398;28;7041;-74
2023/05/29 00:46:55;;;;;;;;;;;;;;;17.77;46.79;101043.47;4952207;28;8917;-76
2023/05/29 00:49:23;;;;;;;;;;;;;;;17.75;46.73;101045.13;4977019;28;8701;-76
2023/05/29 00:51:53;;;;;;;;;;;;;;;17.72;46.84;101045.94;4942721;28;7194;-75
2023/05/29 00:54:26;;;;;;;;;;;;;;;17.69;46.58;101042.38;4959992;28;7027;-75
2023/05/29 00:56:52;;;;;;;;;;;;;;;17.65;46.61;101051.75;4965676;28;6999;-76
2023/05/29 00:59:21;;;;;;;;;;;;;;;17.62;46.69;101051.66;4963794;28;8693;-76
2023/05/29 01:01:50;;;;;;;;;;;;;;;17.57;46.87;101048.94;4956382;28;7018;-77
2023/05/29 01:04:17;;;;;;;;;;;;;;;17.54;46.38;101048.84;4972132;28;6837;-76
2023/05/29 01:06:43;;;;;;;;;;;;;;;17.52;46.82;101052.22;4961554;28;6796;-74
2023/05/29 01:09:10;;;;;;;;;;;;;;;17.47;47.10;101057.25;4987980;28;6796;-76
2023/05/29 01:11:50;;;;;;;;;;;;;;;17.45;46.91;101064.13;4978832;28;6792;-77
2023/05/29 01:14:55;;;;;;;;;;;;;;;17.41;46.38;101070.06;4991448;28;7012;-74
2023/05/29 01:18:21;;;;;;;;;;;;;;;17.33;46.76;101068.09;4957830;28;7150;-75
2023/05/29 01:21:10;;;;;;;;;;;;;;;17.25;46.88;101059.19;4973185;28;6831;-77
2023/05/29 01:24:02;;;;;;;;;;;;;;;17.20;47.07;101068.56;4959144;28;6833;-76
2023/05/29 01:26:55;;;;;;;;;;;;;;;17.12;47.08;101075.19;4974090;28;6992;-76
2023/05/29 01:29:32;;;;;;;;;;;;;;;17.06;47.06;101074.16;4988375;28;6799;-74
2023/05/29 01:31:59;;;;;;;;;;;;;;;17.03;47.22;101075.78;4958248;28;6800;-76
2023/05/29 01:34:24;;;;;;;;;;;;;;;17.00;47.39;101073.97;4956827;28;6784;-75
2023/05/29 01:36:50;;;;;;;;;;;;;;;16.98;46.94;101075.59;4955459;28;7141;-76
2023/05/29 01:39:18;;;;;;;;;;;;;;;16.97;47.18;101075.56;4972594;28;7390;-74
2023/05/29 01:41:46;;;;;;;;;;;;;;;16.92;47.38;101084.03;4962277;28;6875;-76
2023/05/29 01:44:13;;;;;;;;;;;;;;;16.89;47.56;101088.22;4960257;28;6860;-77
2023/05/29 01:46:45;;;;;;;;;;;;;;;16.84;47.28;101087.22;4986577;28;7003;-76
2023/05/29 01:49:12;;;;;;;;;;;;;;;16.78;47.43;101091.34;4990466;28;6879;-75
2023/05/29 01:51:41;;;;;;;;;;;;;;;16.73;47.74;101087.75;4975168;28;6986;-75
2023/05/29 01:54:08;;;;;;;;;;;;;;;16.69;47.62;101092.75;4981390;28;7048;-76
2023/05/29 01:56:35;;;;;;;;;;;;;;;16.63;47.88;101096.88;4992020;28;6819;-76
2023/05/29 01:59:03;;;;;;;;;;;;;;;16.58;48.42;101093.28;4955334;28;7219;-76
2023/05/29 02:01:29;;;;;;;;;;;;;;;16.56;48.71;101094.03;4986987;28;7133;-76
2023/05/29 02:03:55;;;;;;;;;;;;;;;16.51;48.22;101099.94;4957755;28;6776;-76
2023/05/29 02:06:21;;;;;;;;;;;;;;;16.47;48.56;101097.22;4947987;28;6976;-76
2023/05/29 02:08:47;;;;;;;;;;;;;;;16.45;48.81;101104.91;4953204;28;6798;-76
2023/05/29 02:11:13;;;;;;;;;;;;;;;16.43;49.14;101106.56;4954595;28;6780;-76
2023/05/29 02:13:39;;;;;;;;;;;;;;;16.39;49.33;101104.69;4944634;28;6812;-75
2023/05/29 02:16:05;;;;;;;;;;;;;;;16.37;49.51;101111.50;4960305;28;6943;-76
2023/05/29 02:18:31;;;;;;;;;;;;;;;16.33;49.36;101113.09;4977298;28;6784;-74
2023/05/29 02:20:56;;;;;;;;;;;;;;;16.33;49.37;101109.66;4990626;28;6772;-74
2023/05/29 02:23:22;;;;;;;;;;;;;;;16.31;49.94;101109.59;4979432;28;6980;-71
2023/05/29 02:25:48;;;;;;;;;;;;;;;16.28;50.02;101106.91;4942629;28;6982;-73
2023/05/29 02:28:14;;;;;;;;;;;;;;;16.26;50.25;101105.06;4951974;28;6911;-71
2023/05/29 02:30:40;;;;;;;;;;;;;;;16.24;50.45;101105.91;4989304;28;6980;-72
2023/05/29 02:33:06;;;;;;;;;;;;;;;16.22;50.25;101125.66;4966001;28;6776;-70
2023/05/29 02:35:32;;;;;;;;;;;;;;;16.19;50.23;101117.78;4956901;28;7725;-74
2023/05/29 02:37:57;;;;;;;;;;;;;;;16.16;50.79;101112.50;4956584;28;7094;-71
2023/05/29 02:40:23;;;;;;;;;;;;;;;16.14;50.79;101110.69;4995713;28;7193;-71
2023/05/29 02:42:50;;;;;;;;;;;;;;;16.12;50.75;101117.50;4994496;28;6959;-73
2023/05/29 02:45:16;;;;;;;;;;;;;;;16.08;50.88;101119.09;4990806;28;6804;-73
2023/05/29 02:47:42;;;;;;;;;;;;;;;16.05;51.15;101121.56;4964513;28;6792;-71
2023/05/29 02:50:08;;;;;;;;;;;;;;;16.02;51.17;101118.84;4962862;28;6784;-73
2023/05/29 02:52:36;;;;;;;;;;;;;;;15.99;50.95;101127.41;4977163;28;7014;-71
2023/05/29 02:55:03;;;;;;;;;;;;;;;15.95;51.35;101117.75;4987862;28;6884;-72
2023/05/29 02:57:29;;;;;;;;;;;;;;;15.91;51.12;101121.06;4960766;28;7246;-72
2023/05/29 02:59:55;;;;;;;;;;;;;;;15.89;51.57;101128.72;4989374;28;6784;-72
2023/05/29 03:02:20;;;;;;;;;;;;;;;15.85;51.75;101119.09;4977146;28;6840;-72
2023/05/29 03:04:46;;;;;;;;;;;;;;;15.81;51.63;101127.53;4989844;28;6852;-74
2023/05/29 03:07:12;;;;;;;;;;;;;;;15.80;51.70;101138.69;4956914;28;7204;-74
2023/05/29 03:09:38;;;;;;;;;;;;;;;15.80;51.60;101133.53;4974618;28;7003;-72
2023/05/29 03:12:04;;;;;;;;;;;;;;;15.77;51.98;101139.47;4960322;28;6789;-72
2023/05/29 03:14:33;;;;;;;;;;;;;;;15.75;52.02;101135.94;4992987;28;6931;-73
2023/05/29 03:16:59;;;;;;;;;;;;;;;15.73;51.89;101137.59;4982598;28;7176;-71
2023/05/29 03:19:24;;;;;;;;;;;;;;;15.70;51.87;101132.31;4960879;28;6870;-72
2023/05/29 03:21:50;;;;;;;;;;;;;;;15.66;51.49;101133.91;4955407;28;7214;-72
2023/05/29 03:24:16;;;;;;;;;;;;;;;15.65;51.43;101149.31;4991599;28;7170;-72
2023/05/29 03:26:42;;;;;;;;;;;;;;;15.59;51.81;101137.06;4964774;28;7028;-71
2023/05/29 03:29:07;;;;;;;;;;;;;;;15.56;52.24;101134.34;4962428;28;7158;-71
2023/05/29 03:31:33;;;;;;;;;;;;;;;15.52;51.71;101132.47;4988135;28;6828;-74
2023/05/29 03:33:59;;;;;;;;;;;;;;;15.48;52.20;101135.75;4993755;28;6850;-71
2023/05/29 03:36:25;;;;;;;;;;;;;;;15.44;52.28;101131.28;4991715;28;7098;-71
2023/05/29 03:38:50;;;;;;;;;;;;;;;15.40;52.25;101133.75;4988527;28;7051;-71
2023/05/29 03:41:16;;;;;;;;;;;;;;;15.37;52.01;101137.91;4960720;28;6780;-73
2023/05/29 03:43:42;;;;;;;;;;;;;;;15.36;52.20;101147.38;4980963;28;6964;-74
2023/05/29 03:46:08;;;;;;;;;;;;;;;15.34;52.94;101140.38;4957456;28;6856;-71
2023/05/29 03:48:34;;;;;;;;;;;;;;;15.33;52.67;101136.03;4991854;28;6792;-72
2023/05/29 03:50:59;;;;;;;;;;;;;;;15.32;52.51;101139.44;4984444;28;6772;-71
2023/05/29 03:53:25;;;;;;;;;;;;;;;15.32;52.42;101134.25;4958931;28;6780;-71
2023/05/29 03:55:51;;;;;;;;;;;;;;;15.30;52.44;101139.34;4962772;28;7074;-72
2023/05/29 03:58:16;;;;;;;;;;;;;;;15.30;52.55;101139.34;4963130;28;7905;-73
2023/05/29 04:00:42;;;;;;;;;;;;;;;15.33;52.52;101146.34;4985124;28;7237;-72
2023/05/29 04:03:08;;;;;;;;;;;;;;;15.31;52.04;101148.88;4986380;28;6864;-71
2023/05/29 04:05:34;;;;;;;;;;;;;;;15.31;52.63;101150.59;4986343;28;6911;-72
2023/05/29 04:08:00;;;;;;;;;;;;;;;15.30;52.78;101152.28;4983158;28;6986;-71
2023/05/29 04:10:26;;;;;;;;;;;;;;;15.30;52.18;101149.69;4952702;28;6800;-71
2023/05/29 04:12:52;;;;;;;;;;;;;;;15.31;52.44;101148.88;4975566;28;6775;-71
2023/05/29 04:15:17;;;;;;;;;;;;;;;15.31;51.90;101154.03;4987450;28;6980;-73
2023/05/29 04:17:43;;;;;;;;;;;;;;;15.35;52.73;101162.78;4960406;28;6752;-72
2023/05/29 04:20:10;;;;;;;;;;;;;;;15.43;52.93;101168.25;4950240;28;1059981;-71
2023/05/29 04:22:36;;;;;;;;;;;;;;;15.56;52.88;101173.13;4989665;28;7302;-70
2023/05/29 04:25:05;;;;;;;;;;;;;;;15.71;52.80;101178.00;4991039;28;7111;-73
2023/05/29 04:27:37;;;;;;;;;;;;;;;15.85;52.37;101180.22;4945468;28;7273;-70
2023/05/29 04:30:07;;;;;;;;;;;;;;;16.01;52.72;101186.91;4962451;28;7772;-71
2023/05/29 04:32:34;;;;;;;;;;;;;;;16.15;52.35;101182.25;4959028;28;6963;-71
2023/05/29 04:35:03;;;;;;;;;;;;;;;16.29;52.07;101187.94;4962897;28;7225;-71
2023/05/29 04:37:29;;;;;;;;;;;;;;;16.43;51.74;101188.47;4972073;28;7142;-72
2023/05/29 04:39:57;;;;;;;;;;;;;;;16.56;51.20;101187.19;4950725;28;6875;-71
2023/05/29 04:42:24;;;;;;;;;;;;;;;16.66;50.76;101195.34;4968436;28;7018;-74
2023/05/29 04:44:54;;;;;;;;;;;;;;;16.78;51.03;101181.09;4993029;28;6978;-74
2023/05/29 04:47:20;;;;;;;;;;;;;;;16.91;50.21;101188.44;4959691;28;6808;-73
2023/05/29 04:49:50;;;;;;;;;;;;;;;17.04;50.54;101188.88;4970906;28;6768;-72
2023/05/29 04:52:18;;;;;;;;;;;;;;;17.16;49.94;101183.25;4969218;28;7143;-71
2023/05/29 04:54:44;;;;;;;;;;;;;;;17.25;49.78;101188.72;4976367;28;8381;-74
2023/05/29 04:57:10;;;;;;;;;;;;;;;17.33;49.18;101192.44;4986648;28;7178;-71
2023/05/29 04:59:35;;;;;;;;;;;;;;;17.40;48.56;101193.53;4956446;28;7200;-72
2023/05/29 05:02:01;;;;;;;;;;;;;;;17.50;48.51;101199.91;4960622;28;6981;-72
2023/05/29 05:04:27;;;;;;;;;;;;;;;17.54;47.66;101190.53;4946034;28;6814;-73
2023/05/29 05:06:52;;;;;;;;;;;;;;;17.52;47.59;101182.69;4960778;28;7047;-71
2023/05/29 05:09:18;;;;;;;;;;;;;;;17.54;47.38;101190.53;4964026;28;6771;-72
2023/05/29 05:11:44;;;;;;;;;;;;;;;17.55;47.52;101193.13;4955533;28;6856;-71
2023/05/29 05:14:09;;;;;;;;;;;;;;;17.56;46.88;101194.91;4962319;28;6962;-72
2023/05/29 05:16:35;;;;;;;;;;;;;;;17.59;47.26;101197.59;4957638;28;6821;-73
2023/05/29 05:19:00;;;;;;;;;;;;;;;17.62;47.10;101200.28;4993005;28;6856;-72
2023/05/29 05:21:26;;;;;;;;;;;;;;;17.67;46.71;101204.72;4978593;28;7044;-72
2023/05/29 05:23:52;;;;;;;;;;;;;;;17.70;46.65;101208.28;4960212;28;6788;-73
2023/05/29 05:26:17;;;;;;;;;;;;;;;17.70;46.58;101208.28;4945443;28;7051;-74
2023/05/29 05:28:43;;;;;;;;;;;;;;;17.70;46.00;101207.44;4982013;28;6953;-71
2023/05/29 05:31:09;;;;;;;;;;;;;;;17.71;46.67;101214.38;4963357;28;7538;-73
2023/05/29 05:33:34;;;;;;;;;;;;;;;17.72;46.43;101217.03;4950297;28;6840;-72
2023/05/29 05:36:00;;;;;;;;;;;;;;;17.75;46.15;101222.31;4965667;28;6951;-74
2023/05/29 05:38:26;;;;;;;;;;;;;;;17.77;45.88;101215.44;4952237;28;6812;-72
2023/05/29 05:40:51;;;;;;;;;;;;;;;17.79;46.10;101222.38;4951690;28;6808;-73
2023/05/29 05:43:17;;;;;;;;;;;;;;;17.79;45.94;101218.09;4944879;28;6958;-71
2023/05/29 05:45:43;;;;;;;;;;;;;;;17.87;46.27;101232.19;4990052;28;6768;-72
2023/05/29 05:48:08;;;;;;;;;;;;;;;17.89;45.58;101227.91;4977328;28;7233;-72
2023/05/29 05:50:34;;;;;;;;;;;;;;;17.85;45.39;101228.63;4969315;28;7952;-72
2023/05/29 05:53:00;;;;;;;;;;;;;;;17.78;45.72;101226.72;4955105;28;8217;-74
2023/05/29 05:55:27;;;;;;;;;;;;;;;17.72;45.50;101229.09;4980969;28;6847;-73
2023/05/29 05:57:53;;;;;;;;;;;;;;;17.66;45.50;101229.78;4958683;28;6860;-73
2023/05/29 06:00:19;;;;;;;;;;;;;;;17.61;45.30;101227.03;4956905;28;6967;-72
2023/05/29 06:02:45;;;;;;;;;;;;;;;17.54;45.36;101227.66;4988514;28;7003;-72
2023/05/29 06:05:11;;;;;;;;;;;;;;;17.48;45.54;101225.75;4962297;28;7124;-73
2023/05/29 06:07:37;;;;;;;;;;;;;;;17.43;45.50;101221.25;4985169;28;6848;-73
2023/05/29 06:10:05;;;;;;;;;;;;;;;17.38;45.38;101225.38;4960720;28;6796;-72
2023/05/29 06:12:30;;;;;;;;;;;;;;;17.32;45.70;101226.97;4989242;28;6784;-71
2023/05/29 06:14:56;;;;;;;;;;;;;;;17.32;45.40;101226.06;4968643;28;6788;-72
2023/05/29 06:17:23;;;;;;;;;;;;;;;17.34;45.94;101232.22;4971108;28;7134;-73
2023/05/29 06:19:49;;;;;;;;;;;;;;;17.38;45.86;101227.97;4956863;28;7196;-74
2023/05/29 06:22:15;;;;;;;;;;;;;;;17.41;46.16;101230.69;4956184;28;6839;-71
2023/05/29 06:24:41;;;;;;;;;;;;;;;17.42;45.91;101237.63;4988031;28;6965;-72
2023/05/29 06:27:07;;;;;;;;;;;;;;;17.44;45.72;101241.16;4955550;28;6958;-73
2023/05/29 06:29:33;;;;;;;;;;;;;;;17.47;45.73;101236.06;4974492;28;7238;-73
2023/05/29 06:32:00;;;;;;;;;;;;;;;17.52;46.20;101238.81;4989123;28;6831;-74
2023/05/29 06:34:27;;;;;;;;;;;;;;;17.59;45.70;101236.50;4953863;28;7084;-72
2023/05/29 06:36:52;;;;;;;;;;;;;;;17.69;46.20;101227.28;4957851;28;6816;-74
2023/05/29 06:39:19;;;;;;;;;;;;;;;17.77;45.67;101236.19;4963822;28;7373;-72
2023/05/29 06:41:46;;;;;;;;;;;;;;;17.84;46.02;101237.25;4956598;28;6872;-73
2023/05/29 06:44:12;;;;;;;;;;;;;;;17.92;45.77;101234.91;4960098;28;6796;-72
2023/05/29 06:46:37;;;;;;;;;;;;;;;17.96;45.41;101238.47;4957059;28;6959;-73
2023/05/29 06:49:03;;;;;;;;;;;;;;;18.00;45.60;101242.94;4972737;28;7089;-72
2023/05/29 06:51:29;;;;;;;;;;;;;;;18.02;45.53;101246.44;4981445;28;7230;-74
2023/05/29 06:53:55;;;;;;;;;;;;;;;18.06;45.08;101247.44;4986457;28;6776;-73
2023/05/29 06:56:21;;;;;;;;;;;;;;;18.08;45.63;101253.56;4951591;28;8145;-74
2023/05/29 06:58:47;;;;;;;;;;;;;;;18.16;45.69;101260.75;4945133;28;7379;-72
2023/05/29 07:01:13;;;;;;;;;;;;;;;18.30;45.39;101252.50;4990437;28;6930;-74
2023/05/29 07:03:38;;;;;;;;;;;;;;;18.52;45.71;101261.81;4993258;28;6775;-71
2023/05/29 07:06:04;;;;;;;;;;;;;;;18.74;45.68;101258.13;4980274;28;6970;-72
2023/05/29 07:08:30;;;;;;;;;;;;;;;18.97;45.23;101247.47;4965441;28;6800;-72
2023/05/29 07:10:55;;;;;;;;;;;;;;;19.17;44.66;101243.66;4988587;28;6852;-72
2023/05/29 07:13:21;;;;;;;;;;;;;;;19.34;44.97;101247.56;4964602;28;6958;-73
2023/05/29 07:15:50;;;;;;;;;;;;;;;19.54;44.66;101249.78;4960537;28;6775;-74
2023/05/29 07:18:15;;;;;;;;;;;;;;;19.76;44.14;101245.97;4969671;28;7178;-72
2023/05/29 07:20:41;;;;;;;;;;;;;;;19.98;44.39;101247.38;4956742;28;6953;-73
2023/05/29 07:23:07;;;;;;;;;;;;;;;20.21;43.49;101249.63;4987082;28;6840;-72
2023/05/29 07:25:32;;;;;;;;;;;;;;;20.37;43.24;101245.59;4956607;28;7204;-73
2023/05/29 07:27:58;;;;;;;;;;;;;;;20.52;42.64;101234.66;4959308;28;6840;-73
2023/05/29 07:30:24;;;;;;;;;;;;;;;20.66;42.34;101237.50;4957297;28;6845;-73
2023/05/29 07:32:49;;;;;;;;;;;;;;;20.86;42.62;101230.97;4956233;28;6832;-72
2023/05/29 07:35:15;;;;;;;;;;;;;;;21.13;42.44;101235.78;4991677;28;7115;-71
2023/05/29 07:37:41;;;;;;;;;;;;;;;21.42;41.69;101235.41;4982577;28;6795;-72
2023/05/29 07:40:07;;;;;;;;;;;;;;;21.61;41.28;101236.59;4987422;28;6848;-72
2023/05/29 07:42:33;;;;;;;;;;;;;;;21.74;40.97;101235.09;4963003;28;7365;-74
2023/05/29 07:44:59;;;;;;;;;;;;;;;21.86;40.61;101236.13;4978362;28;6976;-72
2023/05/29 07:47:25;;;;;;;;;;;;;;;21.94;40.23;101237.13;4991326;28;6780;-72
2023/05/29 07:49:51;;;;;;;;;;;;;;;22.02;40.02;101235.50;4951096;28;6965;-75
2023/05/29 07:52:18;;;;;;;;;;;;;;;22.10;40.00;101243.41;4960203;28;6792;-72
2023/05/29 07:54:43;;;;;;;;;;;;;;;22.15;39.94;101244.34;4958980;28;6987;-73
2023/05/29 07:57:09;;;;;;;;;;;;;;;22.13;39.41;101245.22;4991758;28;6942;-72
2023/05/29 07:59:36;;;;;;;;;;;;;;;22.07;39.57;101246.00;4956487;28;6883;-73
2023/05/29 08:02:03;;;;;;;;;;;;;;;22.04;39.16;101245.94;4988818;28;7328;-72
2023/05/29 08:04:29;;;;;;;;;;;;;;;22.06;39.56;101250.34;4990087;28;6808;-73
2023/05/29 08:06:55;;;;;;;;;;;;;;;22.13;39.53;101251.28;4967232;28;6972;-71
2023/05/29 08:09:21;;;;;;;;;;;;;;;22.23;39.12;101252.31;4992410;28;6763;-72
2023/05/29 08:11:47;;;;;;;;;;;;;;;22.29;39.11;101251.50;4977898;28;6974;-72
2023/05/29 08:14:14;;;;;;;;;;;;;;;22.31;38.77;101261.13;4978477;28;6963;-73
2023/05/29 08:16:40;;;;;;;;;;;;;;;22.33;38.95;101263.72;4954253;28;6792;-73
2023/05/29 08:19:05;;;;;;;;;;;;;;;22.38;38.89;101264.69;4963849;28;7105;-72
2023/05/29 08:21:31;;;;;;;;;;;;;;;22.53;39.05;101261.41;4952643;28;7049;-75
2023/05/29 08:23:58;;;;;;;;;;;;;;;22.68;38.71;101255.50;4989821;28;6800;-72
2023/05/29 08:26:23;;;;;;;;;;;;;;;22.80;38.20;101262.59;4988940;28;6792;-73
2023/05/29 08:28:50;;;;;;;;;;;;;;;22.91;37.90;101264.44;4990453;28;12607;-72
2023/05/29 08:31:15;;;;;;;;;;;;;;;22.94;37.62;101264.47;4992844;28;6872;-72
2023/05/29 08:33:45;;;;;;;;;;;;;;;22.99;37.92;101260.19;4979542;28;6902;-73
2023/05/29 08:36:11;;;;;;;;;;;;;;;23.09;37.89;101264.63;4959242;28;7028;-72
2023/05/29 08:38:37;;;;;;;;;;;;;;;23.25;37.36;101270.00;4949717;28;6811;-77
2023/05/29 08:41:04;;;;;;;;;;;;;;;23.34;36.72;101264.88;4943818;28;6864;-77
2023/05/29 08:43:32;;;;;;;;;;;;;;;23.47;36.98;101267.59;4977955;28;6831;-79
2023/05/29 08:46:03;;;;;;;;;;;;;;;23.53;36.28;101265.03;4964636;28;6987;-77
2023/05/29 08:48:31;;;;;;;;;;;;;;;23.48;36.69;101262.38;4980815;28;6973;-77
2023/05/29 08:51:02;;;;;;;;;;;;;;;23.63;36.42;101264.22;4950810;28;6791;-77
2023/05/29 08:53:28;;;;;;;;;;;;;;;23.90;36.33;101261.78;4964252;28;7122;-77
2023/05/29 08:55:55;;;;;;;;;;;;;;;24.10;36.27;101264.56;4963452;28;6951;-74
2023/05/29 08:58:27;;;;;;;;;;;;;;;24.30;35.40;101263.78;4978954;28;6996;-77
2023/05/29 09:00:56;;;;;;;;;;;;;;;24.36;35.04;101256.84;4942935;28;7183;-74
2023/05/29 09:03:22;;;;;;;;;;;;;;;24.47;35.04;101254.28;4981198;28;6830;-74
2023/05/29 09:05:48;;;;;;;;;;;;;;;24.65;34.77;101263.94;4979892;28;7202;-75
2023/05/29 09:08:16;;;;;;;;;;;;;;;24.76;34.34;101261.34;4957178;28;7246;-78
2023/05/29 09:10:43;;;;;;;;;;;;;;;24.83;34.92;101262.25;4991866;28;7230;-74
2023/05/29 09:13:09;;;;;;;;;;;;;;;24.94;34.51;101259.69;4978069;28;7145;-77
2023/05/29 09:15:38;;;;;;;;;;;;;;;25.02;34.46;101262.31;4992928;28;6931;-77
2023/05/29 09:18:04;;;;;;;;;;;;;;;25.10;34.09;101255.31;4991052;28;6796;-76
2023/05/29 09:20:30;;;;;;;;;;;;;;;25.17;34.11;101257.09;4964388;28;6919;-77
2023/05/29 09:23:06;;;;;;;;;;;;;;;25.30;34.05;101262.34;4973305;28;8596;-77
2023/05/29 09:25:39;;;;;;;;;;;;;;;25.49;34.05;101256.19;4950419;28;6916;-77
2023/05/29 09:28:07;;;;;;;;;;;;;;;25.68;33.82;101263.22;4960729;28;7011;-76
2023/05/29 09:30:40;;;;;;;;;;;;;;;25.76;33.51;101258.81;4991422;28;7063;-77
2023/05/29 09:33:12;;;;;;;;;;;;;;;25.87;33.21;101262.31;4975750;28;7217;-77
2023/05/29 09:35:50;;;;;;;;;;;;;;;25.98;33.28;101272.78;4994637;28;7237;-77
2023/05/29 09:38:20;;;;;;;;;;;;;;;26.05;32.95;101274.53;4976483;28;6812;-75
2023/05/29 09:40:46;;;;;;;;;;;;;;;26.11;32.57;101273.63;4993789;28;6796;-77
2023/05/29 09:43:17;;;;;;;;;;;;;;;26.12;32.50;101275.38;4947660;28;7086;-74
2023/05/29 09:45:46;;;;;;;;;;;;;;;26.14;32.55;101264.88;4965389;28;6811;-77
2023/05/29 09:48:16;;;;;;;;;;;;;;;26.16;32.54;101277.09;4956336;28;6977;-74
2023/05/29 09:50:44;;;;;;;;;;;;;;;26.19;32.62;101271.91;4991408;28;6788;-77
2023/05/29 09:53:28;;;;;;;;;;;;;;;26.27;32.42;101268.34;4968418;28;6795;-77
2023/05/29 09:55:56;;;;;;;;;;;;;;;26.26;32.71;101261.34;4992234;28;6787;-75
2023/05/29 09:58:22;;;;;;;;;;;;;;;26.30;32.62;101268.34;4959724;28;6804;-77
2023/05/29 10:00:51;;;;;;;;;;;;;;;26.38;32.50;101261.31;4963877;28;6819;-76
2023/05/29 10:03:18;;;;;;;;;;;;;;;26.47;32.54;101263.91;4963768;28;7419;-77
2023/05/29 10:05:50;;;;;;;;;;;;;;;26.56;32.21;101270.88;4986603;28;6808;-77
2023/05/29 10:08:19;;;;;;;;;;;;;;;26.64;31.89;101267.31;4990510;28;7019;-77
2023/05/29 10:10:53;;;;;;;;;;;;;;;26.66;32.10;101266.44;4957819;28;7057;-76
2023/05/29 10:13:24;;;;;;;;;;;;;;;26.70;31.75;101262.91;4987583;28;7251;-77
2023/05/29 10:15:54;;;;;;;;;;;;;;;26.80;31.52;101266.38;4963939;28;6808;-77
2023/05/29 10:18:35;;;;;;;;;;;;;;;26.80;31.38;101263.75;4979271;28;7174;-77
2023/05/29 10:21:02;;;;;;;;;;;;;;;26.70;31.06;101264.66;4961425;28;7030;-77
2023/05/29 10:23:30;;;;;;;;;;;;;;;26.73;31.92;101265.50;4964081;28;6819;-77
2023/05/29 10:26:30;;;;;;;;;;;;;;;26.84;31.67;101267.19;4988550;28;6919;-77
2023/05/29 10:29:21;;;;;;;;;;;;;;;27.05;31.76;101270.63;4961304;28;6824;-78
2023/05/29 10:32:21;;;;;;;;;;;;;;;27.12;31.13;101264.41;4942235;28;6999;-78
2023/05/29 10:35:06;;;;;;;;;;;;;;;27.10;31.37;101259.19;4958071;28;7137;-78
2023/05/29 10:38:05;;;;;;;;;;;;;;;27.10;31.11;101260.94;4988965;28;7060;-77
2023/05/29 10:40:31;;;;;;;;;;;;;;;27.00;31.00;101254.88;4955797;28;7098;-77
2023/05/29 10:42:59;;;;;;;;;;;;;;;27.04;31.10;101253.97;4971335;28;7987;-76
2023/05/29 10:45:28;;;;;;;;;;;;;;;26.98;31.47;101260.13;4960716;28;6983;-75
2023/05/29 10:47:53;;;;;;;;;;;;;;;26.95;30.86;101256.66;4961214;28;7596;-75
2023/05/29 10:50:42;;;;;;;;;;;;;;;26.79;30.91;101255.84;4960498;28;7151;-77
2023/05/29 10:53:22;;;;;;;;;;;;;;;26.80;31.24;101265.47;4994193;28;6808;-77
2023/05/29 10:55:50;;;;;;;;;;;;;;;26.89;31.00;101258.41;4987113;28;6804;-77
2023/05/29 10:58:25;;;;;;;;;;;;;;;26.99;31.05;101259.25;4963163;28;6826;-76
2023/05/29 11:00:54;;;;;;;;;;;;;;;27.02;31.03;101248.69;4986858;28;7428;-76
2023/05/29 11:03:29;;;;;;;;;;;;;;;27.11;31.09;101247.78;4977982;28;7202;-75
2023/05/29 11:06:10;;;;;;;;;;;;;;;27.23;30.91;101246.78;4961330;28;6923;-75
2023/05/29 11:08:52;;;;;;;;;;;;;;;27.32;30.61;101256.38;4962141;28;6935;-76
2023/05/29 11:11:27;;;;;;;;;;;;;;;27.40;30.40;101248.41;4991318;28;6887;-76
2023/05/29 11:13:55;;;;;;;;;;;;;;;27.37;30.33;101251.06;4961522;28;6772;-77
2023/05/29 11:16:29;;;;;;;;;;;;;;;27.29;30.45;101251.16;4992223;28;6792;-78
2023/05/29 11:18:58;;;;;;;;;;;;;;;27.21;30.72;101245.06;4970329;28;7389;-74
2023/05/29 11:21:52;;;;;;;;;;;;;;;27.03;30.53;101249.59;4989492;28;7014;-78
2023/05/29 11:24:29;;;;;;;;;;;;;;;26.84;30.76;101233.00;4959597;28;7409;-79
2023/05/29 11:26:58;;;;;;;;;;;;;;;26.79;31.23;101240.06;4963848;28;6796;-79
2023/05/29 11:29:26;;;;;;;;;;;;;;;26.83;30.96;101239.16;4967574;28;6812;-77
2023/05/29 11:32:07;;;;;;;;;;;;;;;26.88;30.66;101240.91;4963402;28;6808;-77
2023/05/29 11:34:34;;;;;;;;;;;;;;;27.08;30.83;101225.88;4948803;28;7052;-79
2023/05/29 11:37:02;;;;;;;;;;;;;;;27.41;30.67;101229.97;4995678;28;7020;-78
2023/05/29 11:39:29;;;;;;;;;;;;;;;27.66;30.39;101229.75;4950964;28;7410;-80
2023/05/29 11:41:55;;;;;;;;;;;;;;;27.82;30.62;101225.22;4979177;28;7504;-77
2023/05/29 11:44:25;;;;;;;;;;;;;;;28.07;29.75;101227.56;4962519;28;6800;-79
2023/05/29 11:47:05;;;;;;;;;;;;;;;28.34;29.80;101208.81;4991340;28;6812;-78
2023/05/29 11:49:36;;;;;;;;;;;;;;;28.50;29.68;101215.63;4964008;28;6796;-77
2023/05/29 11:52:14;;;;;;;;;;;;;;;28.53;29.46;101218.19;4965095;28;7156;-77
2023/05/29 11:54:46;;;;;;;;;;;;;;;28.54;29.78;101214.69;4979726;28;6876;-75
2023/05/29 11:57:18;;;;;;;;;;;;;;;28.59;29.23;101208.47;4966025;28;6880;-75
2023/05/29 11:59:44;;;;;;;;;;;;;;;28.67;29.56;101214.50;4988820;28;7118;-73
2023/05/29 12:02:11;;;;;;;;;;;;;;;28.72;28.86;101214.44;4966422;28;6776;-75
2023/05/29 12:04:37;;;;;;;;;;;;;;;28.61;28.82;101211.94;4966173;28;7105;-75
2023/05/29 12:07:19;;;;;;;;;;;;;;;28.37;29.07;101217.53;4964056;28;6856;-75
2023/05/29 12:09:45;;;;;;;;;;;;;;;28.22;29.04;101208.06;4976105;28;7189;-75
2023/05/29 12:12:10;;;;;;;;;;;;;;;28.21;29.20;101210.75;4981191;28;6957;-76
2023/05/29 12:14:36;;;;;;;;;;;;;;;28.26;29.16;101208.91;4992912;28;7003;-76
2023/05/29 12:17:02;;;;;;;;;;;;;;;28.20;29.20;101214.25;4967341;28;6776;-75
2023/05/29 12:19:28;;;;;;;;;;;;;;;28.09;29.02;101222.28;4992322;28;6911;-73
2023/05/29 12:21:53;;;;;;;;;;;;;;;27.95;29.42;101219.81;4963695;28;8466;-73
2023/05/29 12:24:19;;;;;;;;;;;;;;;27.83;29.47;101220.81;4960174;28;6816;-76
2023/05/29 12:26:47;;;;;;;;;;;;;;;27.76;29.08;101216.50;4964910;28;6784;-76
2023/05/29 12:29:13;;;;;;;;;;;;;;;27.77;29.21;101218.25;4991662;28;6812;-76
2023/05/29 12:31:39;;;;;;;;;;;;;;;27.86;29.72;101221.66;4965842;28;6856;-73
2023/05/29 12:34:12;;;;;;;;;;;;;;;28.07;29.94;101219.66;4962184;28;6979;-74
2023/05/29 12:36:43;;;;;;;;;;;;;;;28.31;29.34;101215.00;4965139;28;6804;-76
2023/05/29 12:39:10;;;;;;;;;;;;;;;28.48;29.29;101216.53;4964135;28;6800;-73
2023/05/29 12:41:37;;;;;;;;;;;;;;;28.53;29.03;101212.91;4979781;28;7106;-76
2023/05/29 12:44:05;;;;;;;;;;;;;;;28.55;29.13;101210.28;4959925;28;6860;-70
2023/05/29 12:46:43;;;;;;;;;;;;;;;28.58;28.91;101212.84;4960524;28;6804;-70
2023/05/29 12:49:16;;;;;;;;;;;;;;;28.63;28.68;101216.31;4944211;28;7002;-73
2023/05/29 12:51:44;;;;;;;;;;;;;;;28.61;28.62;101211.94;4956445;28;6844;-72